Phoenix, AZ (85019)

5:12 AM MST on September 17, 2014 (GMT -0700)
Phoenix S of Christown | Change Station
CLOSE
Current Station
Personal Weather Station
Location: Phoenix, AZ
Elevation: 1152 ft
Nearby Weather Stations
Active Advisory: Flash Flood Watch Active Notice: Public Information Statement

Elev 1152 ft 33.51 °N, 112.10 °W | Updated 9 minutes ago

Overcast
Overcast
80.3 °F
Feels Like 83 °F
N
0.0
Wind Variable Wind from ESE
Gusts 3.0 mph

Today
High -- | Low -- °F
--% Chance of Precip.
Yesterday
High -- | Low -- °F
Precip. -- in
6:13 AM 6:32 PM
Last Quarter, 36% visible
Pressure 29.74 in
Visibility 10.0 miles
Clouds Mostly Cloudy 12000 ft
Overcast 14000 ft
Heat Index 83 °F
Dew Point 68 °F
Humidity 67%
Rainfall 0.00 in
Snow Depth 1 in , 0 in , 1 in
UV 0 out of 12
Pollen 2.50 out of 12
Ozone Good
PM2.5 Good
Flu Activity Not available.
METAR KPHX 171151Z 07008KT 10SM BKN120 OVC140 27/20 A2980 RMK AO2 RAB02E12 SLP071 P0000 60000 70001 T02720200 10300 20267 56007

More Conditions Fewer Conditions

Pressure 29.74 in
Visibility 10.0 miles
Clouds Mostly Cloudy 12000 ft
Overcast 14000 ft
Heat Index 83 °F
Dew Point 68 °F
Humidity 67%
Rainfall 0.00 in
Snow Depth 1 in , 0 in , 1 in
UV 0 out of 12
Pollen 2.50 out of 12
Ozone Good
PM2.5 Good
Flu Activity Not available.
METAR KPHX 171151Z 07008KT 10SM BKN120 OVC140 27/20 A2980 RMK AO2 RAB02E12 SLP071 P0000 60000 70001 T02720200 10300 20267 56007

More Conditions Fewer Conditions

10-Day Weather Forecast

Almanac

Astronomy

Sep. 17, 2014 Rise Set
Actual Time 6:13 AM MST 6:32 PM MST
Civil Twilight 5:48 AM MST 6:56 PM MST
Nautical Twilight 5:19 AM MST 7:26 PM MST
Astronomical Twilight 4:49 AM MST 7:55 PM MST
Moon 12:28 AM MST 2:32 PM MST
Length of Visible Light 13h 08m
Length of Day
12h 18m
Tomorrow will be 2m 3s shorter.
Last Quarter, 36% of the Moon is Illuminated
Today
Last Quarter
Sep 24
New
Oct 1
First Quarter
Oct 8
Full
Oct 15
Last Quarter

Today's Extremes

State Highs State Lows

Community

WunderPhotos

Upload Photos

1,754,008 photos uploaded!

Nearby

Air Quality

  Air Quality AQ Index Pollutant
Yesterday Good
OZONE
Yesterday Good
PM10
Current Good
OZONE
Current Good
PM2.5
Tuesday Good
OZONE
Tuesday Good
PM10
Tuesday Good
CO
Wednesday Good
OZONE
Wednesday Good
PM10
Wednesday Good
CO
Thursday Good
OZONE
Thursday Good
PM10
Thursday Good
CO

Snow Depth

Station Depth Elevation
Snowslide Canyon 1 in 9730 ft
Fry 0 in 7200 ft
Workman Creek 1 in 6900 ft
Wildcat 0 in 7850 ft
White Horse Lake 0 in 7180 ft

Earthquake Activity

City Distance Mag. Time & Date
No recent earthquake activity has been reported nearby.
Minimum magnitude displayed is 2.5.

Coastal Water Temperatures

Place Temperature
No Stations Reporting

Nearby Weather Stations